Time;durP1;ratioP1;P1;durP2;ratioP2;P2;SDS_P1;SDS_P2;PMS_P1;PMS_P2;Temp;Humidity;BMP_temperature;BMP_pressure;BME280_temperature;BME280_humidity;BME280_pressure;Samples;Min_cycle;Max_cycle;Signal;HPM_P1;HPM_P2
2023/02/03 00:03:14;;;;;;;29.50;16.77;;;7.50;99.90;;;;;;14898516;23;20461;-87
2023/02/03 00:09:16;;;;;;;23.45;15.38;;;7.50;99.90;;;;;;14896507;23;20030;-86
2023/02/03 00:15:19;;;;;;;25.45;15.27;;;7.50;99.90;;;;;;14919958;23;20051;-86
2023/02/03 00:21:21;;;;;;;21.70;14.50;;;7.50;99.90;;;;;;14897309;23;20027;-86
2023/02/03 00:27:23;;;;;;;22.00;14.05;;;7.50;99.90;;;;;;14897340;23;20020;-86
2023/02/03 00:33:24;;;;;;;21.77;13.20;;;7.60;99.90;;;;;;14889418;23;20027;-87
2023/02/03 00:39:26;;;;;;;20.48;12.57;;;7.70;99.90;;;;;;14897062;23;20394;-87
2023/02/03 00:45:28;;;;;;;19.55;12.57;;;7.70;99.90;;;;;;14896578;23;20148;-86
2023/02/03 00:51:31;;;;;;;21.63;12.35;;;7.70;99.90;;;;;;14891806;23;20083;-87
2023/02/03 00:57:33;;;;;;;20.83;12.10;;;7.70;99.90;;;;;;14915866;23;20027;-87
2023/02/03 01:03:35;;;;;;;20.23;12.20;;;7.80;99.90;;;;;;14893671;23;20051;-86
2023/02/03 01:09:37;;;;;;;21.52;12.32;;;7.70;99.90;;;;;;14894999;23;20532;-87
2023/02/03 01:15:46;;;;;;;22.23;12.18;;;7.70;99.90;;;;;;14914176;23;20023;-88
2023/02/03 01:21:48;;;;;;;21.20;12.43;;;7.70;99.90;;;;;;14894225;23;20039;-87
2023/02/03 01:27:50;;;;;;;19.08;12.07;;;7.70;99.90;;;;;;14895870;23;20030;-87
2023/02/03 01:33:53;;;;;;;16.77;11.75;;;7.70;99.90;;;;;;14893163;23;20023;-87
2023/02/03 01:39:56;;;;;;;20.20;12.18;;;7.70;99.90;;;;;;14892534;23;20023;-87
2023/02/03 01:46:01;;;;;;;17.77;11.30;;;7.70;99.90;;;;;;14892676;23;20115;-87
2023/02/03 01:52:04;;;;;;;20.05;12.55;;;7.70;99.90;;;;;;14896674;23;20565;-87
2023/02/03 01:58:24;;;;;;;20.17;11.65;;;7.70;99.90;;;;;;14891175;23;20172;-88
2023/02/03 02:04:35;;;;;;;23.17;11.15;;;7.70;99.90;;;;;;14894926;23;20479;-87
2023/02/03 02:10:38;;;;;;;18.92;11.25;;;7.80;99.90;;;;;;14890114;23;20015;-87
2023/02/03 02:17:03;;;;;;;20.70;11.73;;;7.70;99.90;;;;;;14897295;23;20020;-87
2023/02/03 02:23:23;;;;;;;19.55;11.68;;;7.60;99.90;;;;;;14893162;23;20487;-87
2023/02/03 02:29:25;;;;;;;21.10;12.13;;;7.60;99.90;;;;;;14895000;23;20028;-87
2023/02/03 02:35:37;;;;;;;13.40;10.48;;;7.70;99.90;;;;;;14891477;23;20114;-88
2023/02/03 02:41:55;;;;;;;19.70;11.63;;;7.70;99.90;;;;;;14920673;23;20027;-87
2023/02/03 02:48:09;;;;;;;18.25;10.70;;;7.80;99.90;;;;;;14888430;23;20016;-87
2023/02/03 02:54:16;;;;;;;16.65;10.40;;;7.80;99.90;;;;;;14894658;23;20020;-88
2023/02/03 03:00:19;;;;;;;17.60;9.80;;;7.80;99.90;;;;;;14914453;23;20034;-87
2023/02/03 03:06:30;;;;;;;15.13;9.63;;;7.80;99.90;;;;;;14894152;23;20051;-88
2023/02/03 03:12:36;;;;;;;16.95;10.27;;;7.90;99.90;;;;;;14892410;23;20028;-87
2023/02/03 03:18:44;;;;;;;20.13;9.63;;;7.80;99.90;;;;;;14899641;23;20453;-87
2023/02/03 03:24:51;;;;;;;20.33;10.15;;;7.80;99.90;;;;;;14898699;23;20047;-86
2023/02/03 03:30:53;;;;;;;16.77;9.40;;;7.70;99.90;;;;;;14897296;23;20020;-87
2023/02/03 03:37:30;;;;;;;17.70;9.88;;;7.70;99.90;;;;;;14900732;23;20024;-88
2023/02/03 03:43:37;;;;;;;16.30;8.95;;;7.70;99.90;;;;;;14782540;23;20028;-87
2023/02/03 03:49:43;;;;;;;16.27;9.50;;;7.80;99.90;;;;;;14894219;23;20024;-87
2023/02/03 03:55:49;;;;;;;19.60;8.77;;;7.70;99.90;;;;;;14896819;23;20115;-87
2023/02/03 04:01:51;;;;;;;16.98;8.85;;;7.80;99.90;;;;;;14916774;23;20032;-88
2023/02/03 04:07:54;;;;;;;13.52;7.78;;;7.80;99.90;;;;;;14894553;23;20086;-87
2023/02/03 04:13:55;;;;;;;16.30;7.97;;;7.90;99.90;;;;;;14893254;23;20024;-87
2023/02/03 04:19:57;;;;;;;15.70;7.25;;;7.80;99.90;;;;;;14897953;23;20034;-87
2023/02/03 04:26:00;;;;;;;16.92;7.50;;;7.80;99.90;;;;;;14892230;23;20128;-86
2023/02/03 04:32:02;;;;;;;14.45;7.25;;;7.80;99.90;;;;;;14895181;23;20028;-86
2023/02/03 04:38:04;;;;;;;15.27;7.03;;;7.80;99.90;;;;;;14892792;23;20445;-87
2023/02/03 04:44:06;;;;;;;14.05;6.50;;;7.90;99.90;;;;;;14915997;23;20031;-86
2023/02/03 04:50:08;;;;;;;10.82;5.65;;;7.90;99.90;;;;;;14890116;23;20390;-87
2023/02/03 04:56:10;;;;;;;13.65;5.30;;;7.90;99.90;;;;;;14892853;23;20083;-87
2023/02/03 05:02:12;;;;;;;15.52;5.57;;;7.90;99.90;;;;;;14894830;23;20028;-87
2023/02/03 05:08:15;;;;;;;12.50;5.72;;;7.90;99.90;;;;;;14899827;23;20076;-86
2023/02/03 05:14:17;;;;;;;13.23;5.15;;;8.00;99.90;;;;;;14926696;23;20099;-86
2023/02/03 05:20:19;;;;;;;9.85;4.88;;;7.90;99.90;;;;;;14895137;23;20028;-86
2023/02/03 05:26:22;;;;;;;13.88;4.95;;;7.90;99.90;;;;;;14891173;23;20282;-86
2023/02/03 05:32:24;;;;;;;13.02;4.65;;;7.90;99.90;;;;;;14887772;23;20027;-87
2023/02/03 05:38:26;;;;;;;11.35;4.50;;;8.00;99.90;;;;;;14892359;23;20028;-87
2023/02/03 05:44:29;;;;;;;11.07;4.22;;;7.90;99.90;;;;;;14894600;23;20115;-87
2023/02/03 05:50:32;;;;;;;9.98;3.75;;;8.00;99.90;;;;;;14889327;23;20015;-87
2023/02/03 05:56:34;;;;;;;10.32;4.20;;;7.90;99.90;;;;;;14916746;23;20435;-87
2023/02/03 06:02:36;;;;;;;9.65;3.75;;;8.00;99.90;;;;;;14896023;23;20447;-88
2023/02/03 06:08:39;;;;;;;11.48;4.00;;;8.00;99.90;;;;;;14892721;23;20020;-87
2023/02/03 06:14:41;;;;;;;15.40;4.80;;;7.90;99.90;;;;;;14894088;23;20023;-87
2023/02/03 06:20:43;;;;;;;8.43;4.45;;;7.80;99.90;;;;;;14894731;23;20027;-86
2023/02/03 06:26:45;;;;;;;9.82;4.53;;;7.70;99.90;;;;;;14886997;23;20369;-86
2023/02/03 06:32:47;;;;;;;10.65;4.65;;;7.70;99.90;;;;;;14885809;23;20366;-86
2023/02/03 06:38:49;;;;;;;14.45;5.68;;;7.50;99.90;;;;;;14893050;23;20437;-86
2023/02/03 06:44:51;;;;;;;12.38;5.45;;;7.50;99.90;;;;;;14894245;23;20024;-86
2023/02/03 06:50:53;;;;;;;8.75;4.70;;;7.50;99.90;;;;;;14893777;23;20075;-87
2023/02/03 06:56:55;;;;;;;10.10;5.25;;;7.50;99.90;;;;;;14919458;23;20031;-87
2023/02/03 07:02:58;;;;;;;9.73;5.90;;;7.50;99.90;;;;;;14896154;23;20036;-86
2023/02/03 07:09:03;;;;;;;9.38;5.13;;;7.50;99.90;;;;;;14890453;23;20026;-87
2023/02/03 07:15:05;;;;;;;11.00;5.55;;;7.50;99.90;;;;;;14895115;23;20028;-88
2023/02/03 07:21:07;;;;;;;8.95;5.05;;;7.50;99.90;;;;;;14893649;23;20035;-87
2023/02/03 07:27:09;;;;;;;9.73;5.13;;;7.50;99.90;;;;;;14888922;23;20125;-88
2023/02/03 07:33:10;;;;;;;10.98;5.70;;;7.60;99.90;;;;;;14893821;23;20051;-87
2023/02/03 07:39:12;;;;;;;11.50;5.68;;;7.50;99.90;;;;;;14894035;23;20028;-87
2023/02/03 07:45:17;;;;;;;11.80;5.57;;;7.60;99.90;;;;;;14888365;23;20099;-87
2023/02/03 07:51:19;;;;;;;13.95;5.60;;;7.60;99.90;;;;;;14889057;23;20160;-87
2023/02/03 07:57:23;;;;;;;14.43;6.05;;;7.60;99.90;;;;;;14893703;23;20136;-88
2023/02/03 08:03:25;;;;;;;12.73;6.13;;;7.60;99.90;;;;;;14912521;23;20020;-88
2023/02/03 08:09:27;;;;;;;11.73;5.82;;;7.60;99.90;;;;;;14894376;23;20032;-88
2023/02/03 08:15:29;;;;;;;12.65;6.13;;;7.60;99.90;;;;;;14894106;23;20038;-87
2023/02/03 08:21:30;;;;;;;13.32;6.03;;;7.60;99.90;;;;;;14884525;23;20024;-87
2023/02/03 08:27:33;;;;;;;10.48;5.18;;;7.60;99.90;;;;;;14895890;23;20353;-87
2023/02/03 08:33:35;;;;;;;11.50;5.30;;;7.70;99.90;;;;;;14887544;23;20023;-87
2023/02/03 08:39:37;;;;;;;14.13;5.43;;;7.70;99.90;;;;;;14886581;23;20030;-87
2023/02/03 08:45:41;;;;;;;11.48;5.38;;;7.80;99.90;;;;;;14893956;23;20024;-87
2023/02/03 08:51:44;;;;;;;15.93;4.78;;;7.80;99.90;;;;;;14918504;23;20077;-86
2023/02/03 08:57:46;;;;;;;10.00;4.95;;;7.90;99.90;;;;;;14896081;23;20024;-87
2023/02/03 09:03:48;;;;;;;10.40;5.13;;;7.90;99.90;;;;;;14920913;23;20103;-88
2023/02/03 09:09:50;;;;;;;10.52;4.72;;;8.00;99.90;;;;;;14892419;23;20107;-87
2023/02/03 09:15:53;;;;;;;7.95;3.90;;;8.10;99.90;;;;;;14893990;23;20342;-88
2023/02/03 09:21:56;;;;;;;10.73;5.00;;;8.10;99.90;;;;;;14894109;23;20055;-88
2023/02/03 09:28:00;;;;;;;13.63;5.93;;;8.00;99.90;;;;;;14893325;23;20103;-89
2023/02/03 09:34:02;;;;;;;22.13;5.32;;;7.90;99.90;;;;;;14891880;23;20469;-89
2023/02/03 09:40:04;;;;;;;12.88;5.88;;;7.90;99.90;;;;;;14891791;23;20047;-88
2023/02/03 09:46:18;;;;;;;13.20;5.38;;;7.90;99.90;;;;;;14916471;23;20058;-88
2023/02/03 09:52:24;;;;;;;14.33;5.00;;;7.90;99.90;;;;;;14892576;23;20541;-88
2023/02/03 09:58:31;;;;;;;15.63;5.20;;;7.90;99.90;;;;;;14890399;23;20028;-88
2023/02/03 10:04:40;;;;;;;9.80;4.63;;;7.90;99.90;;;;;;14889211;23;20027;-89
2023/02/03 10:11:12;;;;;;;12.05;4.57;;;7.80;99.90;;;;;;14892082;23;20030;-89
2023/02/03 10:17:25;;;;;;;10.15;4.35;;;7.90;99.90;;;;;;14884754;23;20151;-89
2023/02/03 10:23:35;;;;;;;8.27;4.10;;;7.90;99.90;;;;;;14893398;23;20390;-89
2023/02/03 10:29:41;;;;;;;10.30;3.95;;;7.90;99.90;;;;;;14893274;23;20034;-89
2023/02/03 10:35:56;;;;;;;8.07;3.03;;;8.00;99.90;;;;;;14889159;23;20110;-90
2023/02/03 10:41:58;;;;;;;;;;;7.90;99.90;;;;;;14891068;23;20035;-89
2023/02/03 10:48:03;;;;;;;7.70;2.75;;;7.90;99.90;;;;;;14887336;23;19928;-89
2023/02/03 10:54:26;;;;;;;10.90;2.20;;;8.00;99.90;;;;;;14889276;23;20097;-88
2023/02/03 11:00:31;;;;;;;12.45;2.50;;;7.90;99.90;;;;;;14842547;23;20028;-88
2023/02/03 11:06:35;;;;;;;11.57;2.10;;;7.90;99.90;;;;;;14847174;24;20016;-89
2023/02/03 11:12:36;;;;;;;15.83;2.80;;;7.80;99.90;;;;;;14848987;23;20028;-88
2023/02/03 11:18:47;;;;;;;15.30;2.53;;;7.80;99.90;;;;;;14852369;24;20024;-88
2023/02/03 11:24:48;;;;;;;18.77;3.47;;;7.80;99.90;;;;;;14848522;23;20073;-88
2023/02/03 11:30:57;;;;;;;15.55;2.15;;;7.80;99.90;;;;;;14843467;23;20039;-88
2023/02/03 11:37:26;;;;;;;14.93;1.90;;;7.80;99.90;;;;;;14847756;24;20095;-88
2023/02/03 11:43:29;;;;;;;15.45;2.22;;;7.80;99.90;;;;;;14854815;23;20691;-88
2023/02/03 11:50:09;;;;;;;16.95;2.70;;;8.00;99.90;;;;;;14846333;24;20025;-88
2023/02/03 11:56:19;;;;;;;20.90;3.25;;;8.20;99.90;;;;;;14849330;23;20378;-88
2023/02/03 12:03:10;;;;;;;22.30;3.22;;;8.30;99.90;;;;;;14879359;23;20473;-88
2023/02/03 12:09:21;;;;;;;19.98;3.80;;;8.30;99.90;;;;;;14894864;23;20019;-88
2023/02/03 12:15:29;;;;;;;18.83;3.45;;;8.50;99.90;;;;;;14892719;23;20028;-88
2023/02/03 12:21:46;;;;;;;19.08;3.63;;;8.60;99.90;;;;;;14894807;23;20023;-88
2023/02/03 12:28:08;;;;;;;16.48;2.80;;;8.60;99.90;;;;;;14890268;23;20030;-87
2023/02/03 12:34:27;;;;;;;23.65;3.22;;;8.60;99.90;;;;;;14920692;23;20027;-88
2023/02/03 12:40:36;;;;;;;17.08;2.67;;;8.60;99.90;;;;;;14891950;23;20052;-87
2023/02/03 12:46:54;;;;;;;18.35;3.05;;;8.60;99.90;;;;;;14893971;23;20515;-88
2023/02/03 12:53:04;;;;;;;20.95;3.10;;;8.70;99.90;;;;;;14893429;23;20094;-87
2023/02/03 12:59:14;;;;;;;28.92;3.78;;;8.70;99.90;;;;;;14893839;23;20027;-87
2023/02/03 13:05:51;;;;;;;23.23;3.38;;;8.90;99.90;;;;;;14917130;23;20053;-88
2023/02/03 13:12:05;;;;;;;18.58;2.85;;;8.90;99.90;;;;;;14858176;23;20030;-89
2023/02/03 13:18:16;;;;;;;18.87;2.93;;;8.80;99.90;;;;;;14921787;23;20023;-89
2023/02/03 13:24:22;;;;;;;21.80;3.17;;;8.70;99.90;;;;;;14893811;23;20056;-89
2023/02/03 13:30:39;;;;;;;19.67;3.22;;;8.60;99.90;;;;;;14891304;23;20104;-87
2023/02/03 13:37:11;;;;;;;19.15;4.00;;;8.50;99.90;;;;;;14889387;23;20015;-89
2023/02/03 13:43:21;;;;;;;20.85;3.15;;;8.50;99.90;;;;;;14918914;23;20084;-88
2023/02/03 13:49:45;;;;;;;26.33;4.22;;;8.50;99.90;;;;;;14900199;23;20107;-88
2023/02/03 13:55:56;;;;;;;20.50;3.60;;;8.60;99.90;;;;;;14890559;23;20079;-88
2023/02/03 14:02:37;;;;;;;29.90;4.47;;;8.60;99.90;;;;;;14897299;23;20369;-89
2023/02/03 14:08:39;;;;;;;15.40;3.00;;;8.60;99.90;;;;;;14885054;23;20417;-88
2023/02/03 14:14:42;;;;;;;21.73;2.85;;;8.70;99.90;;;;;;14901522;23;20024;-89
2023/02/03 14:20:47;;;;;;;22.17;3.83;;;8.70;99.90;;;;;;14895041;23;20095;-89
2023/02/03 14:26:52;;;;;;;21.10;3.53;;;8.70;99.90;;;;;;14894785;23;20027;-89
2023/02/03 14:32:57;;;;;;;21.98;2.80;;;8.60;99.90;;;;;;14913541;23;20119;-89
2023/02/03 14:39:02;;;;;;;18.42;3.38;;;8.50;99.90;;;;;;14887960;23;20035;-89
2023/02/03 14:45:16;;;;;;;25.10;3.97;;;8.50;99.90;;;;;;14915201;23;20059;-89
2023/02/03 14:51:33;;;;;;;29.67;3.78;;;8.40;99.90;;;;;;14888763;23;20453;-88
2023/02/03 14:57:52;;;;;;;21.55;3.55;;;8.40;99.90;;;;;;14890621;23;20024;-89
2023/02/03 15:04:12;;;;;;;22.52;3.55;;;8.30;99.90;;;;;;14891812;23;20127;-89
2023/02/03 15:10:20;;;;;;;16.70;3.45;;;8.20;99.90;;;;;;14894508;23;20020;-89
2023/02/03 15:16:25;;;;;;;16.67;2.50;;;8.20;99.90;;;;;;14897083;23;20127;-89
2023/02/03 15:22:29;;;;;;;16.02;2.67;;;8.20;99.90;;;;;;14894704;23;20469;-89
2023/02/03 15:28:31;;;;;;;20.52;4.25;;;8.00;99.90;;;;;;14894883;23;20059;-89
2023/02/03 15:34:40;;;;;;;14.77;2.47;;;7.90;99.90;;;;;;14916962;23;20028;-89
2023/02/03 15:40:53;;;;;;;21.42;3.38;;;7.90;99.90;;;;;;14892260;23;20034;-89
2023/02/03 15:46:56;;;;;;;19.13;3.15;;;7.80;99.90;;;;;;14897226;23;20031;-88
2023/02/03 15:53:37;;;;;;;16.90;2.63;;;7.70;99.90;;;;;;14894285;23;20034;-89
2023/02/03 15:59:53;;;;;;;18.02;2.80;;;7.70;99.90;;;;;;14769140;23;20038;-88
2023/02/03 16:05:56;;;;;;;16.58;2.78;;;7.70;99.90;;;;;;14892490;23;20019;-90
2023/02/03 16:12:28;;;;;;;18.80;3.72;;;7.70;99.90;;;;;;14896872;23;20024;-89
2023/02/03 16:18:36;;;;;;;25.65;3.53;;;7.60;99.90;;;;;;14892077;23;20027;-88
2023/02/03 16:24:41;;;;;;;25.58;3.25;;;7.60;99.90;;;;;;14891725;23;20024;-89
2023/02/03 16:56:40;;;;;;;20.42;2.88;;;7.40;99.90;;;;;;14921633;23;20057;-88
2023/02/03 17:02:45;;;;;;;21.85;3.83;;;7.40;99.90;;;;;;14893327;23;20038;-89
2023/02/03 17:08:47;;;;;;;22.92;3.45;;;7.30;99.90;;;;;;14923085;23;20108;-89
2023/02/03 17:14:49;;;;;;;25.33;3.13;;;7.30;99.90;;;;;;14903965;23;20059;-89
2023/02/03 17:20:51;;;;;;;21.83;2.80;;;7.20;99.90;;;;;;14898015;23;20019;-88
2023/02/03 17:26:53;;;;;;;20.33;2.90;;;7.20;99.90;;;;;;14899506;23;20030;-88
2023/02/03 17:32:58;;;;;;;;;;;7.10;99.90;;;;;;14891869;23;20106;-88
2023/02/03 17:39:00;;;;;;;23.52;2.90;;;7.10;99.90;;;;;;14894623;23;20320;-88
2023/02/03 17:45:20;;;;;;;14.90;3.40;;;7.20;99.90;;;;;;14902756;23;20397;-88
2023/02/03 17:51:40;;;;;;;22.75;3.33;;;7.20;99.90;;;;;;14895081;23;20101;-88
2023/02/03 17:58:00;;;;;;;21.25;2.88;;;7.10;99.90;;;;;;14897903;23;20030;-88
2023/02/03 18:04:03;;;;;;;16.48;2.88;;;7.10;99.90;;;;;;14888840;23;20039;-88
2023/02/03 18:10:05;;;;;;;17.05;2.88;;;7.10;99.90;;;;;;14894459;23;20396;-88
2023/02/03 18:16:14;;;;;;;20.13;3.30;;;7.10;99.90;;;;;;14890642;23;20338;-87
2023/02/03 18:22:15;;;;;;;16.52;2.47;;;7.00;99.90;;;;;;14897448;23;20390;-87
2023/02/03 18:28:18;;;;;;;22.20;3.33;;;7.00;99.90;;;;;;14892407;23;20023;-88
2023/02/03 18:34:19;;;;;;;20.55;2.72;;;6.90;99.90;;;;;;14891428;23;20118;-88
2023/02/03 18:40:21;;;;;;;24.00;3.50;;;6.90;99.90;;;;;;14894892;23;20035;-88
2023/02/03 18:46:33;;;;;;;27.13;3.72;;;7.00;99.90;;;;;;14906100;23;20059;-89
2023/02/03 18:52:42;;;;;;;22.63;3.38;;;6.90;99.90;;;;;;14902649;23;20103;-88
2023/02/03 18:58:45;;;;;;;22.60;3.15;;;6.90;99.90;;;;;;14896503;23;20027;-88
2023/02/03 19:04:47;;;;;;;24.48;3.53;;;6.90;99.90;;;;;;14899275;23;20023;-88
2023/02/03 19:10:53;;;;;;;20.70;3.10;;;6.80;99.90;;;;;;14898733;23;20099;-88
2023/02/03 19:16:55;;;;;;;20.20;3.33;;;6.80;99.90;;;;;;14894849;23;20072;-87
2023/02/03 19:22:58;;;;;;;22.60;3.47;;;6.70;99.90;;;;;;14898834;23;20199;-88
2023/02/03 19:29:03;;;;;;;24.20;3.20;;;6.70;99.90;;;;;;14894531;23;20028;-88
2023/02/03 19:35:05;;;;;;;17.40;2.88;;;6.60;99.90;;;;;;14891735;23;20091;-88
2023/02/03 19:41:08;;;;;;;16.25;3.05;;;6.60;99.90;;;;;;14896370;23;20095;-88
2023/02/03 19:47:10;;;;;;;14.80;2.72;;;6.50;99.90;;;;;;14896274;23;20118;-88
2023/02/03 19:53:13;;;;;;;21.27;3.40;;;6.60;99.90;;;;;;14896860;23;20048;-87
2023/02/03 19:59:15;;;;;;;22.90;3.85;;;6.50;99.90;;;;;;14897591;23;20520;-86
2023/02/03 20:05:18;;;;;;;19.77;2.83;;;6.50;99.90;;;;;;14892736;23;20151;-88
2023/02/03 20:11:20;;;;;;;22.52;3.25;;;6.40;99.90;;;;;;14898387;23;20058;-86
2023/02/03 20:17:23;;;;;;;21.85;3.17;;;6.40;99.90;;;;;;14901491;23;20107;-88
2023/02/03 20:23:25;;;;;;;23.30;3.40;;;6.40;99.90;;;;;;14895135;23;20117;-86
2023/02/03 20:29:27;;;;;;;23.52;3.90;;;6.40;99.90;;;;;;14893150;23;20095;-86
2023/02/03 20:35:29;;;;;;;22.17;3.00;;;6.50;99.90;;;;;;14890851;23;20051;-87
2023/02/03 20:41:31;;;;;;;22.80;3.28;;;6.50;99.90;;;;;;14920866;23;20028;-87
2023/02/03 20:47:33;;;;;;;26.13;5.05;;;6.40;99.90;;;;;;14893062;23;20100;-86
2023/02/03 20:53:35;;;;;;;24.83;3.55;;;6.40;99.90;;;;;;14894188;23;20024;-86
2023/02/03 20:59:37;;;;;;;32.10;3.90;;;6.50;99.90;;;;;;14896133;23;20520;-86
2023/02/03 21:05:41;;;;;;;23.33;3.53;;;6.50;99.90;;;;;;14893575;23;20027;-87
2023/02/03 21:11:43;;;;;;;27.07;3.97;;;6.50;99.90;;;;;;14895133;23;20106;-86
2023/02/03 21:17:45;;;;;;;21.33;4.10;;;6.50;99.90;;;;;;14894195;23;20024;-86
2023/02/03 21:23:47;;;;;;;26.58;4.30;;;6.50;99.90;;;;;;14919645;23;20039;-87
2023/02/03 21:29:49;;;;;;;21.42;2.83;;;6.60;99.90;;;;;;14916056;23;20026;-86
2023/02/03 21:35:51;;;;;;;19.90;3.25;;;6.50;99.90;;;;;;14890610;23;20122;-86
2023/02/03 21:41:53;;;;;;;26.20;3.97;;;6.50;99.90;;;;;;14891083;23;20043;-87
2023/02/03 21:48:00;;;;;;;26.90;3.63;;;6.50;99.90;;;;;;14890414;23;20106;-86
2023/02/03 21:54:26;;;;;;;29.70;3.97;;;6.40;99.90;;;;;;14892505;23;20043;-85
2023/02/03 22:00:42;;;;;;;21.95;4.03;;;6.30;99.90;;;;;;14896367;23;20034;-85
2023/02/03 22:06:49;;;;;;;29.20;4.35;;;6.30;99.90;;;;;;14896081;23;20038;-85
2023/02/03 22:12:50;;;;;;;33.78;3.47;;;6.30;99.90;;;;;;14918242;23;20038;-85
2023/02/03 22:18:52;;;;;;;25.52;4.10;;;6.30;99.90;;;;;;14893094;23;20023;-85
2023/02/03 22:24:54;;;;;;;25.85;3.60;;;6.20;99.90;;;;;;14893684;23;20536;-85
2023/02/03 22:30:56;;;;;;;23.02;3.58;;;6.20;99.90;;;;;;14917661;23;20016;-86
2023/02/03 22:36:58;;;;;;;37.83;4.53;;;6.30;99.90;;;;;;14894409;23;20020;-85
2023/02/03 22:43:00;;;;;;;26.08;3.45;;;6.40;99.90;;;;;;14894394;23;20183;-85
2023/02/03 22:49:02;;;;;;;27.75;3.80;;;6.40;99.90;;;;;;14890649;23;20035;-86
2023/02/03 22:55:05;;;;;;;26.25;4.40;;;6.40;99.90;;;;;;14894738;23;20410;-86
2023/02/03 23:01:07;;;;;;;26.65;4.38;;;6.40;99.90;;;;;;14919257;23;20060;-86
2023/02/03 23:07:08;;;;;;;26.77;3.28;;;6.30;99.90;;;;;;14897056;23;20028;-85
2023/02/03 23:13:10;;;;;;;25.50;4.05;;;6.20;99.90;;;;;;14902580;23;20058;-86
2023/02/03 23:19:12;;;;;;;30.45;4.28;;;6.10;99.90;;;;;;14904318;23;20016;-86
2023/02/03 23:25:17;;;;;;;23.02;3.58;;;6.00;99.90;;;;;;14896966;23;20505;-85
2023/02/03 23:31:18;;;;;;;36.22;3.78;;;5.90;99.90;;;;;;14924313;23;20023;-85
2023/02/03 23:37:21;;;;;;;28.75;3.28;;;5.80;99.90;;;;;;14928947;23;20032;-86
2023/02/03 23:43:23;;;;;;;32.45;4.38;;;5.80;99.90;;;;;;14905516;23;20027;-86
2023/02/03 23:49:25;;;;;;;31.90;3.53;;;5.90;99.90;;;;;;14899026;23;20026;-85
2023/02/03 23:55:28;;;;;;;25.90;3.67;;;6.00;99.90;;;;;;14903679;23;20365;-86
